Wilsonia, California
Current Conditions -  °F | °C
As of 6:56 AM on Friday 28 Nov 2014 (Local Time) from KBIH Reporting Station
Clear Clear  
Wind Chill: 18°   Ceiling: Unl
Heat Index: 24°   Visibility: 10mi
Dew Point: 12°   Wind: 5mph
Humidity: 60%   Direction: NA
Pressure: 30.11"   Gusts: NA
Location:  36.7872°N, 118.66°W
Report Text: KBIH 281456Z AUTO VRB04KT 10SM CLR M04/M11 A3011 RMK AO2 SLP206 T10441111 56008
Loading
Personal Weather Stations






























Interactive Weather Map New forecast layout! Learn more

10-Day Weather Forecast

Advertisements
Track Severe Weather on mobile